Flugplatz Lübeck Blankensee

Bericht für EDHL

vom 07.12. um 18:20 UTC

Wind 7 kt aus 140°

Sichtweite 9000 m

aufgelockert bewölkt in 800 ft

aufgelockert bewölkt in 1500 ft

aufgebrochene Bewölkung in 3300 ft

Temperatur 1.0°C

Taupunkt -1.0°C

Luftfeuchtigkeit 86%

Luftdruck 1008 hPa

EDHL 071820Z 14007KT 100V180 9000 SCT008 SCT015 BKN033 01/M01 Q1008

Prognose für EDHL

vom 07.12. um 17:00 UTC

Zwischen 18:00 UTC und 21:00 UTC

Wind 9 kt aus 140°

Sichtweite 10 km oder mehr

aufgebrochene Bewölkung in 800 ft


Zwischen 18:00 UTC und 20:00 UTC zeitweise mit einer Wahrscheinlichkeit von 30%

Sichtweite 4500 m

schwacher Schnee

aufgelockert bewölkt in 800 ft

aufgebrochene Bewölkung in 1500 ft


Zwischen 20:00 UTC und 21:00 UTC zeitweise mit einer Wahrscheinlichkeit von 30%

aufgelockert bewölkt in 900 ft

aufgebrochene Bewölkung in 3000 ft

TAF EDHL 071700Z 0718/0721 14009KT 9999 BKN008 PROB30 TEMPO 0718/0720 4500 -SN SCT008 BKN015 PROB30 TEMPO 0720/0721 SCT009 BKN030
Impressum